createdAt,value
2023-02-15T00:02:52.869Z,10.18
2023-02-15T00:05:54.190Z,9.80
2023-02-15T00:08:55.505Z,9.98
2023-02-15T00:11:56.813Z,10.82
2023-02-15T00:14:58.088Z,9.82
2023-02-15T00:17:59.411Z,9.57
2023-02-15T00:21:00.718Z,9.33
2023-02-15T00:24:02.024Z,9.10
2023-02-15T00:27:03.377Z,9.93
2023-02-15T00:30:04.701Z,9.50
2023-02-15T00:33:06.048Z,9.32
2023-02-15T00:36:07.375Z,9.17
2023-02-15T00:39:08.677Z,8.85
2023-02-15T00:42:09.996Z,9.38
2023-02-15T00:45:11.310Z,9.27
2023-02-15T00:48:12.622Z,9.05
2023-02-15T00:51:13.926Z,9.03
2023-02-15T00:54:15.259Z,9.35
2023-02-15T00:57:16.541Z,9.35
2023-02-15T01:00:17.840Z,8.75
2023-02-15T01:03:19.141Z,9.00
2023-02-15T01:06:20.448Z,8.87
2023-02-15T01:09:21.741Z,9.35
2023-02-15T01:12:23.064Z,9.23
2023-02-15T01:15:24.364Z,8.70
2023-02-15T01:18:25.662Z,9.23
2023-02-15T01:21:26.956Z,9.20
2023-02-15T01:24:28.288Z,8.90
2023-02-15T01:27:29.586Z,8.95
2023-02-15T01:30:30.887Z,9.82
2023-02-15T01:33:32.208Z,9.45
2023-02-15T01:36:33.512Z,9.07
2023-02-15T01:39:34.827Z,8.82
2023-02-15T01:42:36.122Z,9.73
2023-02-15T01:45:37.416Z,8.25
2023-02-15T01:48:38.716Z,8.57
2023-02-15T01:51:40.165Z,8.13
2023-02-15T01:54:41.447Z,9.15
2023-02-15T01:57:42.863Z,8.93
2023-02-15T02:00:44.310Z,7.57
2023-02-15T02:03:45.623Z,8.43
2023-02-15T02:06:46.915Z,8.50
2023-02-15T02:09:48.229Z,8.35
2023-02-15T02:12:49.526Z,8.43
2023-02-15T02:15:50.864Z,8.85
2023-02-15T02:18:52.194Z,8.40
2023-02-15T02:21:53.491Z,7.93
2023-02-15T02:24:54.801Z,8.25
2023-02-15T02:27:56.092Z,8.15
2023-02-15T02:30:57.515Z,8.80
2023-02-15T02:33:58.888Z,8.90
2023-02-15T02:37:00.206Z,8.80
2023-02-15T02:40:01.536Z,7.65
2023-02-15T02:43:02.852Z,8.88
2023-02-15T02:46:04.382Z,7.85
2023-02-15T02:49:05.785Z,7.65
2023-02-15T02:52:07.086Z,7.17
2023-02-15T02:55:08.398Z,7.97
2023-02-15T02:58:09.690Z,8.68
2023-02-15T03:01:10.994Z,7.72
2023-02-15T03:04:12.312Z,7.55
2023-02-15T03:07:13.603Z,7.13
2023-02-15T03:10:14.894Z,8.25
2023-02-15T03:13:16.212Z,7.28
2023-02-15T03:16:17.526Z,7.38
2023-02-15T03:19:18.861Z,7.57
2023-02-15T03:22:20.159Z,7.60
2023-02-15T03:25:21.480Z,8.15
2023-02-15T03:28:22.777Z,7.07
2023-02-15T03:31:24.126Z,6.85
2023-02-15T03:34:25.478Z,7.25
2023-02-15T03:37:26.793Z,6.90
2023-02-15T03:40:28.100Z,6.43
2023-02-15T03:43:29.401Z,7.85
2023-02-15T03:46:30.752Z,7.15
2023-02-15T03:49:32.096Z,7.18
2023-02-15T03:52:33.391Z,7.63
2023-02-15T03:55:34.689Z,7.55
2023-02-15T03:58:36.007Z,8.10
2023-02-15T04:01:37.291Z,8.00
2023-02-15T04:04:38.594Z,6.90
2023-02-15T04:07:39.882Z,7.70
2023-02-15T04:10:41.213Z,7.35
2023-02-15T04:13:42.500Z,7.65
2023-02-15T04:16:43.826Z,7.70
2023-02-15T04:19:45.146Z,7.03
2023-02-15T04:22:46.466Z,6.97
2023-02-15T04:25:47.758Z,7.60
2023-02-15T04:28:49.123Z,7.60
2023-02-15T04:31:50.697Z,7.35
2023-02-15T04:34:52.093Z,7.35
2023-02-15T04:37:53.397Z,7.13
2023-02-15T04:40:54.716Z,7.45
2023-02-15T04:43:56.016Z,7.30
2023-02-15T04:46:57.317Z,7.10
2023-02-15T04:49:58.623Z,7.80
2023-02-15T04:52:59.936Z,8.33
2023-02-15T04:56:01.576Z,7.07
2023-02-15T04:59:03.014Z,7.30
2023-02-15T05:02:04.340Z,7.80
2023-02-15T05:05:05.626Z,7.57
2023-02-15T05:08:06.942Z,7.17
2023-02-15T05:11:08.239Z,7.53
2023-02-15T05:14:09.556Z,8.80
2023-02-15T05:17:10.858Z,7.60
2023-02-15T05:20:12.151Z,8.20
2023-02-15T05:23:13.646Z,8.13
2023-02-15T05:26:14.947Z,7.80
2023-02-15T05:29:16.259Z,8.57
2023-02-15T05:32:17.687Z,8.63
2023-02-15T05:35:19.070Z,9.60
2023-02-15T05:38:20.365Z,7.93
2023-02-15T05:41:21.673Z,8.70
2023-02-15T05:44:23.031Z,9.07
2023-02-15T05:47:24.328Z,9.43
2023-02-15T05:50:25.767Z,8.70
2023-02-15T05:53:27.067Z,9.23
2023-02-15T05:56:28.494Z,9.77
2023-02-15T05:59:29.812Z,9.40
2023-02-15T06:02:31.185Z,9.75
2023-02-15T06:05:32.758Z,10.05
2023-02-15T06:08:34.036Z,10.20
2023-02-15T06:11:35.364Z,10.63
2023-02-15T06:14:36.639Z,10.93
2023-02-15T06:17:37.950Z,10.57
2023-02-15T06:20:39.262Z,10.48
2023-02-15T06:23:40.610Z,10.47
2023-02-15T06:26:41.915Z,9.82
2023-02-15T06:29:43.205Z,10.38
2023-02-15T06:32:44.598Z,8.18
2023-02-15T06:35:45.901Z,9.63
2023-02-15T06:38:47.222Z,8.43
2023-02-15T06:41:48.570Z,10.07
2023-02-15T06:44:49.888Z,9.57
2023-02-15T06:47:51.204Z,11.57
2023-02-15T06:50:52.518Z,13.68
2023-02-15T06:53:53.811Z,13.57
2023-02-15T06:56:55.116Z,11.60
2023-02-15T06:59:56.406Z,11.48
2023-02-15T07:02:57.747Z,11.38
2023-02-15T07:05:59.210Z,11.88
2023-02-15T07:09:00.595Z,11.37
2023-02-15T07:12:01.896Z,11.85
2023-02-15T07:15:03.176Z,11.07
2023-02-15T07:18:04.511Z,11.70
2023-02-15T07:21:05.809Z,12.77
2023-02-15T07:24:08.995Z,13.33
2023-02-15T07:27:11.438Z,13.20
2023-02-15T07:30:14.211Z,13.23
2023-02-15T07:33:15.672Z,14.00
2023-02-15T07:36:16.992Z,14.38
2023-02-15T07:39:18.342Z,13.90
2023-02-15T07:42:19.628Z,14.25
2023-02-15T07:45:20.953Z,14.90
2023-02-15T07:48:24.634Z,15.07
2023-02-15T07:51:26.281Z,15.05
2023-02-15T07:54:27.604Z,16.60
2023-02-15T07:57:28.921Z,15.98
2023-02-15T08:00:30.220Z,16.17
2023-02-15T08:03:31.639Z,16.63
2023-02-15T08:06:32.967Z,15.75
2023-02-15T08:09:34.308Z,15.63
2023-02-15T08:12:35.618Z,15.40
2023-02-15T08:15:36.940Z,15.73
2023-02-15T08:18:38.273Z,14.73
2023-02-15T08:21:39.565Z,16.05
2023-02-15T08:24:40.896Z,14.77
2023-02-15T08:27:42.200Z,15.15
2023-02-15T08:30:43.516Z,14.77
2023-02-15T08:33:44.813Z,13.85
2023-02-15T08:36:46.138Z,14.75
2023-02-15T08:39:47.561Z,14.63
2023-02-15T08:42:48.932Z,15.10
2023-02-15T08:45:50.309Z,14.23
2023-02-15T08:48:51.608Z,14.45
2023-02-15T08:51:52.937Z,13.63
2023-02-15T08:54:54.295Z,13.60
2023-02-15T08:57:55.760Z,12.38
2023-02-15T09:00:57.104Z,13.35
2023-02-15T09:03:58.431Z,12.73
2023-02-15T09:07:00.687Z,15.35
2023-02-15T09:10:02.058Z,15.37
2023-02-15T09:13:03.409Z,16.73
2023-02-15T09:16:04.715Z,14.95
2023-02-15T09:19:06.029Z,16.20
2023-02-15T09:22:07.347Z,14.88
2023-02-15T09:25:08.633Z,13.63
2023-02-15T09:28:11.862Z,13.85
2023-02-15T09:31:13.287Z,13.95
2023-02-15T09:34:14.646Z,13.18
2023-02-15T09:37:15.967Z,11.70
2023-02-15T09:40:17.268Z,11.37
2023-02-15T09:43:18.731Z,12.02
2023-02-15T09:46:20.082Z,11.25
2023-02-15T09:49:21.430Z,11.75
2023-02-15T09:52:22.755Z,11.70
2023-02-15T09:55:24.081Z,10.97
2023-02-15T09:58:25.366Z,10.00
2023-02-15T10:01:26.709Z,10.63
2023-02-15T10:04:28.094Z,10.77
2023-02-15T10:07:29.423Z,11.98
2023-02-15T10:10:30.773Z,10.73
2023-02-15T10:13:32.122Z,10.27
2023-02-15T10:16:33.524Z,9.85
2023-02-15T10:19:34.806Z,9.73
2023-02-15T10:22:36.166Z,10.68
2023-02-15T10:25:37.461Z,9.50
2023-02-15T10:28:38.776Z,10.50
2023-02-15T10:31:40.241Z,9.48
2023-02-15T10:34:41.652Z,11.10
2023-02-15T10:37:42.960Z,14.15
2023-02-15T10:40:44.372Z,13.97
2023-02-15T10:43:45.687Z,13.48
2023-02-15T10:46:48.237Z,12.45
2023-02-15T10:49:49.556Z,12.63
2023-02-15T10:52:50.876Z,10.52
2023-02-15T10:55:52.154Z,10.40
2023-02-15T10:58:53.478Z,9.57
2023-02-15T11:01:54.904Z,11.95
2023-02-15T11:04:56.364Z,9.30
2023-02-15T11:07:57.801Z,8.40
2023-02-15T11:10:59.194Z,8.90
2023-02-15T11:14:00.560Z,9.63
2023-02-15T11:17:01.900Z,10.07
2023-02-15T11:20:03.275Z,9.50
2023-02-15T11:23:04.779Z,10.88
2023-02-15T11:26:06.175Z,9.03
2023-02-15T11:29:07.531Z,9.65
2023-02-15T11:32:09.013Z,10.27
2023-02-15T11:35:10.428Z,9.68
2023-02-15T11:38:11.905Z,9.50
2023-02-15T11:41:13.233Z,10.50
2023-02-15T11:44:14.566Z,9.60
2023-02-15T11:47:15.857Z,9.35
2023-02-15T11:50:17.257Z,10.55
2023-02-15T11:53:18.670Z,8.52
2023-02-15T11:56:19.986Z,9.03
2023-02-15T11:59:21.325Z,8.23
2023-02-15T12:02:22.663Z,8.98
2023-02-15T12:05:24.007Z,8.30
2023-02-15T12:08:25.308Z,8.98
2023-02-15T12:11:26.637Z,8.37
2023-02-15T12:14:27.922Z,7.85
2023-02-15T12:17:29.246Z,8.98
2023-02-15T12:20:30.684Z,9.20
2023-02-15T12:23:31.978Z,8.43
2023-02-15T12:26:33.348Z,7.80
2023-02-15T12:29:34.668Z,7.40
2023-02-15T12:32:36.009Z,8.15
2023-02-15T12:35:37.325Z,7.70
2023-02-15T12:38:38.648Z,6.85
2023-02-15T12:41:39.948Z,6.83
2023-02-15T12:44:41.290Z,9.40
2023-02-15T12:47:42.582Z,7.38
2023-02-15T12:50:44.043Z,7.78
2023-02-15T12:53:45.397Z,8.10
2023-02-15T12:56:46.720Z,8.30
2023-02-15T12:59:48.023Z,8.02
2023-02-15T13:02:49.337Z,8.32
2023-02-15T13:05:50.662Z,6.88
2023-02-15T13:08:51.982Z,8.68
2023-02-15T13:11:53.279Z,7.53
2023-02-15T13:14:54.589Z,7.53
2023-02-15T13:17:55.907Z,7.97
2023-02-15T13:20:57.292Z,7.75
2023-02-15T13:23:58.624Z,7.55
2023-02-15T13:27:13.105Z,7.33
2023-02-15T13:30:16.225Z,7.20
2023-02-15T13:33:17.536Z,8.27
2023-02-15T13:36:18.860Z,7.45
2023-02-15T13:39:20.163Z,7.45
2023-02-15T13:42:21.499Z,7.37
2023-02-15T13:45:22.822Z,7.78
2023-02-15T13:48:29.390Z,7.88
2023-02-15T13:51:35.474Z,8.43
2023-02-15T13:54:36.816Z,6.78
2023-02-15T13:57:38.106Z,7.43
2023-02-15T14:00:39.402Z,8.00
2023-02-15T14:03:40.745Z,7.25
2023-02-15T14:06:42.123Z,6.80
2023-02-15T14:09:43.467Z,7.35
2023-02-15T14:12:44.764Z,7.30
2023-02-15T14:15:46.666Z,7.82
2023-02-15T14:18:48.119Z,7.97
2023-02-15T14:21:49.417Z,7.20
2023-02-15T14:24:50.730Z,7.25
2023-02-15T14:27:53.286Z,7.47
2023-02-15T14:30:54.777Z,6.82
2023-02-15T14:33:56.168Z,6.70
2023-02-15T14:36:57.479Z,6.30
2023-02-15T14:39:58.795Z,7.25
2023-02-15T14:43:00.112Z,6.93
2023-02-15T14:46:01.471Z,6.97
2023-02-15T14:49:02.822Z,7.90
2023-02-15T14:52:04.140Z,8.15
2023-02-15T14:55:05.452Z,11.48
2023-02-15T14:58:06.939Z,10.47
2023-02-15T15:01:08.353Z,9.13
2023-02-15T15:04:09.841Z,8.40
2023-02-15T15:07:11.303Z,10.05
2023-02-15T15:10:12.608Z,9.82
2023-02-15T15:13:14.126Z,9.33
2023-02-15T15:16:15.477Z,8.57
2023-02-15T15:19:17.148Z,9.00
2023-02-15T15:22:18.534Z,8.60
2023-02-15T15:25:19.863Z,8.82
2023-02-15T15:28:21.175Z,8.30
2023-02-15T15:31:22.596Z,8.35
2023-02-15T15:34:23.989Z,8.00
2023-02-15T15:37:25.305Z,9.18
2023-02-15T15:40:26.593Z,10.25
2023-02-15T15:43:28.154Z,8.50
2023-02-15T15:46:29.587Z,8.23
2023-02-15T15:49:30.941Z,8.55
2023-02-15T15:52:32.558Z,9.45
2023-02-15T15:55:33.926Z,8.13
2023-02-15T15:58:35.249Z,8.10
2023-02-15T16:01:36.637Z,8.82
2023-02-15T16:04:38.530Z,9.73
2023-02-15T16:07:40.271Z,12.50
2023-02-15T16:10:41.949Z,14.02
2023-02-15T16:13:43.665Z,12.07
2023-02-15T16:16:45.437Z,11.48
2023-02-15T16:19:46.848Z,12.00
2023-02-15T16:22:48.130Z,11.68
2023-02-15T16:25:49.470Z,12.45
2023-02-15T16:28:50.835Z,10.90
2023-02-15T16:31:53.132Z,11.00
2023-02-15T16:34:54.612Z,11.75
2023-02-15T16:37:55.947Z,13.52
2023-02-15T16:40:57.248Z,12.68
2023-02-15T16:43:58.824Z,10.80
2023-02-15T16:47:00.679Z,12.25
2023-02-15T16:50:03.293Z,12.02
2023-02-15T16:53:05.021Z,11.90
2023-02-15T16:56:06.653Z,12.30
2023-02-15T16:59:08.375Z,14.50
2023-02-15T17:02:10.019Z,16.08
2023-02-15T17:05:11.414Z,17.73
2023-02-15T17:08:13.964Z,16.90
2023-02-15T17:11:15.758Z,16.00
2023-02-15T17:14:17.552Z,13.50
2023-02-15T17:17:19.341Z,13.15
2023-02-15T17:20:20.729Z,14.70
2023-02-15T17:23:22.465Z,13.45
2023-02-15T17:26:24.267Z,13.23
2023-02-15T17:29:25.682Z,12.83
2023-02-15T17:32:27.612Z,12.93
2023-02-15T17:35:29.523Z,13.43
2023-02-15T17:38:32.392Z,12.07
2023-02-15T17:41:36.549Z,11.90
2023-02-15T17:44:38.366Z,11.87
2023-02-15T17:47:42.546Z,10.55
2023-02-15T17:50:44.434Z,11.40
2023-02-15T17:53:46.447Z,11.45
2023-02-15T17:56:47.886Z,12.75
2023-02-15T17:59:49.192Z,12.27
2023-02-15T18:02:50.513Z,12.93
2023-02-15T18:05:52.835Z,12.25
2023-02-15T18:08:58.176Z,11.85
2023-02-15T18:12:00.119Z,12.90
2023-02-15T18:15:02.050Z,11.90
2023-02-15T18:18:04.150Z,12.35
2023-02-15T18:21:06.073Z,13.30
2023-02-15T18:24:07.908Z,12.02
2023-02-15T18:27:09.802Z,12.60
2023-02-15T18:30:11.826Z,12.27
2023-02-15T18:33:13.736Z,12.32
2023-02-15T18:36:15.566Z,12.35
2023-02-15T18:39:19.590Z,12.10
2023-02-15T18:42:21.404Z,11.65
2023-02-15T18:45:23.363Z,12.00
2023-02-15T18:48:25.253Z,12.77
2023-02-15T18:51:29.558Z,13.52
2023-02-15T18:54:31.510Z,13.07
2023-02-15T18:57:32.947Z,12.25
2023-02-15T19:00:34.302Z,12.00
2023-02-15T19:03:36.138Z,12.82
2023-02-15T19:06:38.067Z,12.63
2023-02-15T19:09:39.989Z,14.15
2023-02-15T19:12:42.927Z,13.15
2023-02-15T19:15:44.867Z,12.40
2023-02-15T19:18:46.706Z,13.10
2023-02-15T19:21:48.777Z,12.75
2023-02-15T19:24:51.409Z,14.07
2023-02-15T19:27:53.948Z,13.02
2023-02-15T19:30:55.918Z,13.77
2023-02-15T19:33:57.936Z,14.45
2023-02-15T19:37:01.321Z,14.73
2023-02-15T19:40:03.409Z,14.32
2023-02-15T19:43:06.371Z,14.95
2023-02-15T19:46:09.527Z,14.57
2023-02-15T19:49:11.869Z,15.43
2023-02-15T19:52:13.939Z,14.30
2023-02-15T19:55:15.740Z,14.73
2023-02-15T19:58:17.718Z,14.77
2023-02-15T20:01:20.158Z,13.90
2023-02-15T20:04:22.188Z,15.15
2023-02-15T20:07:24.226Z,14.95
2023-02-15T20:10:26.270Z,15.80
2023-02-15T20:13:28.174Z,14.68
2023-02-15T20:16:30.084Z,14.20
2023-02-15T20:19:31.980Z,13.85
2023-02-15T20:22:33.942Z,13.93
2023-02-15T20:25:35.870Z,13.07
2023-02-15T20:28:37.848Z,13.65
2023-02-15T20:31:39.966Z,13.90
2023-02-15T20:34:42.389Z,13.32
2023-02-15T20:37:45.375Z,13.55
2023-02-15T20:40:47.446Z,13.15
2023-02-15T20:43:49.952Z,12.52
2023-02-15T20:46:51.940Z,13.17
2023-02-15T20:49:53.702Z,13.30
2023-02-15T20:52:55.625Z,13.35
2023-02-15T20:55:58.130Z,14.25
2023-02-15T20:59:00.052Z,14.88
2023-02-15T21:02:02.142Z,12.73
2023-02-15T21:05:04.139Z,14.63
2023-02-15T21:08:05.599Z,14.80
2023-02-15T21:11:07.541Z,14.45
2023-02-15T21:14:09.228Z,14.80
2023-02-15T21:17:11.040Z,15.67
2023-02-15T21:20:12.924Z,16.38
2023-02-15T21:23:14.286Z,17.08
2023-02-15T21:26:18.426Z,16.50
2023-02-15T21:29:21.669Z,16.98
2023-02-15T21:32:23.705Z,17.60
2023-02-15T21:35:25.548Z,17.98
2023-02-15T21:38:27.347Z,18.05
2023-02-15T21:41:28.815Z,18.90
2023-02-15T21:44:30.351Z,17.10
2023-02-15T21:47:32.119Z,16.00
2023-02-15T21:50:33.900Z,18.67
2023-02-15T21:53:35.315Z,17.70
2023-02-15T21:56:37.094Z,17.67
2023-02-15T21:59:38.904Z,17.98
2023-02-15T22:02:40.609Z,18.10
2023-02-15T22:05:42.002Z,19.08
2023-02-15T22:08:43.330Z,19.98
2023-02-15T22:11:44.666Z,19.10
2023-02-15T22:14:45.946Z,17.33
2023-02-15T22:17:47.247Z,18.93
2023-02-15T22:20:48.536Z,19.23
2023-02-15T22:23:49.837Z,18.75
2023-02-15T22:26:51.156Z,19.27
2023-02-15T22:29:52.519Z,19.20
2023-02-15T22:32:53.836Z,19.27
2023-02-15T22:35:55.166Z,20.85
2023-02-15T22:38:56.452Z,19.65
2023-02-15T22:41:57.753Z,18.10
2023-02-15T22:44:59.073Z,18.40
2023-02-15T22:48:00.517Z,18.23
2023-02-15T22:51:02.150Z,19.60
2023-02-15T22:54:03.583Z,19.15
2023-02-15T22:57:04.885Z,18.17
2023-02-15T23:00:06.168Z,20.02
2023-02-15T23:03:07.488Z,18.43
2023-02-15T23:06:08.782Z,17.42
2023-02-15T23:09:10.070Z,18.48
2023-02-15T23:12:11.367Z,18.38
2023-02-15T23:15:12.658Z,18.73
2023-02-15T23:18:13.968Z,17.17
2023-02-15T23:21:15.416Z,17.70
2023-02-15T23:24:16.729Z,19.48
2023-02-15T23:27:18.069Z,17.75
2023-02-15T23:30:19.417Z,18.13
2023-02-15T23:33:20.868Z,17.40
2023-02-15T23:36:22.229Z,18.58
2023-02-15T23:39:23.539Z,19.10
2023-02-15T23:42:24.831Z,18.73
2023-02-15T23:45:26.148Z,18.15
2023-02-15T23:48:27.444Z,17.30
2023-02-15T23:51:28.772Z,17.73
2023-02-15T23:54:30.058Z,17.80
2023-02-15T23:57:31.372Z,17.70
